sensor_id;sensor_type;location;lat;lon;timestamp;P1;durP1;ratioP1;P2;durP2;ratioP2
17826;SDS011;9038;48.208;16.308;2024-01-07T00:00:53;5.40;;;4.20;;
17826;SDS011;9038;48.208;16.308;2024-01-07T00:02:55;5.77;;;4.40;;
17826;SDS011;9038;48.208;16.308;2024-01-07T00:04:56;4.30;;;3.90;;
17826;SDS011;9038;48.208;16.308;2024-01-07T00:07:00;4.43;;;3.63;;
17826;SDS011;9038;48.208;16.308;2024-01-07T00:09:02;4.10;;;3.70;;
17826;SDS011;9038;48.208;16.308;2024-01-07T00:11:03;4.80;;;3.60;;
17826;SDS011;9038;48.208;16.308;2024-01-07T00:13:05;3.80;;;3.37;;
17826;SDS011;9038;48.208;16.308;2024-01-07T00:15:07;4.23;;;3.50;;
17826;SDS011;9038;48.208;16.308;2024-01-07T00:17:09;3.80;;;3.33;;
17826;SDS011;9038;48.208;16.308;2024-01-07T00:19:11;4.60;;;3.53;;
17826;SDS011;9038;48.208;16.308;2024-01-07T00:21:13;5.27;;;3.63;;
17826;SDS011;9038;48.208;16.308;2024-01-07T00:23:16;4.43;;;3.63;;
17826;SDS011;9038;48.208;16.308;2024-01-07T00:25:18;4.20;;;3.80;;
17826;SDS011;9038;48.208;16.308;2024-01-07T00:27:20;4.30;;;3.90;;
17826;SDS011;9038;48.208;16.308;2024-01-07T00:29:22;4.13;;;3.73;;
17826;SDS011;9038;48.208;16.308;2024-01-07T00:31:24;4.57;;;3.70;;
17826;SDS011;9038;48.208;16.308;2024-01-07T00:33:25;4.97;;;3.90;;
17826;SDS011;9038;48.208;16.308;2024-01-07T00:35:27;4.23;;;3.73;;
17826;SDS011;9038;48.208;16.308;2024-01-07T00:37:29;6.47;;;3.97;;
17826;SDS011;9038;48.208;16.308;2024-01-07T00:39:32;3.43;;;3.13;;
17826;SDS011;9038;48.208;16.308;2024-01-07T00:41:34;3.40;;;3.00;;
17826;SDS011;9038;48.208;16.308;2024-01-07T00:43:36;4.50;;;3.40;;
17826;SDS011;9038;48.208;16.308;2024-01-07T00:45:38;4.07;;;3.27;;
17826;SDS011;9038;48.208;16.308;2024-01-07T00:47:41;4.37;;;3.50;;
17826;SDS011;9038;48.208;16.308;2024-01-07T00:49:43;3.50;;;3.10;;
17826;SDS011;9038;48.208;16.308;2024-01-07T00:51:44;4.27;;;3.40;;
17826;SDS011;9038;48.208;16.308;2024-01-07T00:53:45;4.00;;;3.37;;
17826;SDS011;9038;48.208;16.308;2024-01-07T00:55:48;3.83;;;3.43;;
17826;SDS011;9038;48.208;16.308;2024-01-07T00:57:50;5.10;;;4.10;;
17826;SDS011;9038;48.208;16.308;2024-01-07T00:59:51;3.83;;;3.43;;
17826;SDS011;9038;48.208;16.308;2024-01-07T01:01:53;3.30;;;3.00;;
17826;SDS011;9038;48.208;16.308;2024-01-07T01:03:55;4.47;;;3.70;;
17826;SDS011;9038;48.208;16.308;2024-01-07T01:05:58;3.80;;;3.30;;
17826;SDS011;9038;48.208;16.308;2024-01-07T01:08:00;4.30;;;3.27;;
17826;SDS011;9038;48.208;16.308;2024-01-07T01:10:02;3.73;;;3.00;;
17826;SDS011;9038;48.208;16.308;2024-01-07T01:12:05;4.87;;;2.97;;
17826;SDS011;9038;48.208;16.308;2024-01-07T01:14:07;3.83;;;3.10;;
17826;SDS011;9038;48.208;16.308;2024-01-07T01:16:09;3.20;;;2.83;;
17826;SDS011;9038;48.208;16.308;2024-01-07T01:18:11;3.30;;;3.00;;
17826;SDS011;9038;48.208;16.308;2024-01-07T01:20:13;3.60;;;3.10;;
17826;SDS011;9038;48.208;16.308;2024-01-07T01:22:15;4.53;;;3.30;;
17826;SDS011;9038;48.208;16.308;2024-01-07T01:24:17;3.50;;;3.20;;
17826;SDS011;9038;48.208;16.308;2024-01-07T01:26:19;3.93;;;3.30;;
17826;SDS011;9038;48.208;16.308;2024-01-07T01:28:22;3.47;;;3.17;;
17826;SDS011;9038;48.208;16.308;2024-01-07T01:30:24;3.80;;;3.20;;
17826;SDS011;9038;48.208;16.308;2024-01-07T01:32:25;3.37;;;2.80;;
17826;SDS011;9038;48.208;16.308;2024-01-07T01:34:27;3.60;;;3.20;;
17826;SDS011;9038;48.208;16.308;2024-01-07T01:36:30;4.13;;;2.93;;
17826;SDS011;9038;48.208;16.308;2024-01-07T01:38:32;3.70;;;3.17;;
17826;SDS011;9038;48.208;16.308;2024-01-07T01:40:34;4.73;;;3.63;;
17826;SDS011;9038;48.208;16.308;2024-01-07T01:42:36;4.30;;;3.23;;
17826;SDS011;9038;48.208;16.308;2024-01-07T01:44:39;3.77;;;3.40;;
17826;SDS011;9038;48.208;16.308;2024-01-07T01:46:42;3.70;;;3.20;;
17826;SDS011;9038;48.208;16.308;2024-01-07T01:48:46;3.70;;;3.40;;
17826;SDS011;9038;48.208;16.308;2024-01-07T01:50:48;4.77;;;3.30;;
17826;SDS011;9038;48.208;16.308;2024-01-07T01:52:49;4.63;;;3.70;;
17826;SDS011;9038;48.208;16.308;2024-01-07T01:54:52;3.57;;;3.27;;
17826;SDS011;9038;48.208;16.308;2024-01-07T01:56:54;4.23;;;3.40;;
17826;SDS011;9038;48.208;16.308;2024-01-07T01:58:56;3.97;;;3.40;;
17826;SDS011;9038;48.208;16.308;2024-01-07T02:01:00;3.50;;;3.20;;
17826;SDS011;9038;48.208;16.308;2024-01-07T02:03:02;4.30;;;3.40;;
17826;SDS011;9038;48.208;16.308;2024-01-07T02:05:03;4.33;;;3.70;;
17826;SDS011;9038;48.208;16.308;2024-01-07T02:07:06;3.80;;;3.27;;
17826;SDS011;9038;48.208;16.308;2024-01-07T02:09:07;4.07;;;3.47;;
17826;SDS011;9038;48.208;16.308;2024-01-07T02:11:16;3.97;;;3.20;;
17826;SDS011;9038;48.208;16.308;2024-01-07T02:13:18;3.80;;;3.40;;
17826;SDS011;9038;48.208;16.308;2024-01-07T02:15:20;4.80;;;3.60;;
17826;SDS011;9038;48.208;16.308;2024-01-07T02:17:24;3.93;;;3.53;;
17826;SDS011;9038;48.208;16.308;2024-01-07T02:19:25;4.77;;;3.83;;
17826;SDS011;9038;48.208;16.308;2024-01-07T02:21:27;4.10;;;3.70;;
17826;SDS011;9038;48.208;16.308;2024-01-07T02:23:29;4.60;;;3.60;;
17826;SDS011;9038;48.208;16.308;2024-01-07T02:25:35;4.40;;;3.90;;
17826;SDS011;9038;48.208;16.308;2024-01-07T02:27:37;4.33;;;3.67;;
17826;SDS011;9038;48.208;16.308;2024-01-07T02:29:39;3.40;;;3.10;;
17826;SDS011;9038;48.208;16.308;2024-01-07T02:31:41;4.20;;;3.80;;
17826;SDS011;9038;48.208;16.308;2024-01-07T02:33:43;4.40;;;3.60;;
17826;SDS011;9038;48.208;16.308;2024-01-07T02:35:45;5.20;;;4.00;;
17826;SDS011;9038;48.208;16.308;2024-01-07T02:37:46;3.80;;;3.40;;
17826;SDS011;9038;48.208;16.308;2024-01-07T02:39:48;4.27;;;3.87;;
17826;SDS011;9038;48.208;16.308;2024-01-07T02:41:52;3.80;;;3.40;;
17826;SDS011;9038;48.208;16.308;2024-01-07T02:43:54;4.97;;;3.90;;
17826;SDS011;9038;48.208;16.308;2024-01-07T02:45:55;4.20;;;3.80;;
17826;SDS011;9038;48.208;16.308;2024-01-07T02:47:57;5.93;;;4.53;;
17826;SDS011;9038;48.208;16.308;2024-01-07T02:49:58;4.70;;;4.07;;
17826;SDS011;9038;48.208;16.308;2024-01-07T02:52:00;5.63;;;4.60;;
17826;SDS011;9038;48.208;16.308;2024-01-07T02:54:01;4.80;;;4.30;;
17826;SDS011;9038;48.208;16.308;2024-01-07T02:56:03;4.23;;;3.83;;
17826;SDS011;9038;48.208;16.308;2024-01-07T02:58:07;4.77;;;4.27;;
17826;SDS011;9038;48.208;16.308;2024-01-07T03:00:09;4.43;;;3.93;;
17826;SDS011;9038;48.208;16.308;2024-01-07T03:02:10;4.80;;;4.07;;
17826;SDS011;9038;48.208;16.308;2024-01-07T03:04:13;4.40;;;4.00;;
17826;SDS011;9038;48.208;16.308;2024-01-07T03:06:16;4.53;;;3.93;;
17826;SDS011;9038;48.208;16.308;2024-01-07T03:08:17;4.30;;;3.80;;
17826;SDS011;9038;48.208;16.308;2024-01-07T03:10:19;6.00;;;4.50;;
17826;SDS011;9038;48.208;16.308;2024-01-07T03:12:21;4.77;;;4.17;;
17826;SDS011;9038;48.208;16.308;2024-01-07T03:14:24;5.83;;;3.90;;
17826;SDS011;9038;48.208;16.308;2024-01-07T03:16:26;4.87;;;4.37;;
17826;SDS011;9038;48.208;16.308;2024-01-07T03:18:28;5.10;;;4.60;;
17826;SDS011;9038;48.208;16.308;2024-01-07T03:20:30;4.67;;;4.23;;
17826;SDS011;9038;48.208;16.308;2024-01-07T03:22:32;5.33;;;4.27;;
17826;SDS011;9038;48.208;16.308;2024-01-07T03:24:34;5.13;;;4.63;;
17826;SDS011;9038;48.208;16.308;2024-01-07T03:26:36;4.77;;;4.27;;
17826;SDS011;9038;48.208;16.308;2024-01-07T03:28:38;4.63;;;4.00;;
17826;SDS011;9038;48.208;16.308;2024-01-07T03:30:40;5.13;;;4.63;;
17826;SDS011;9038;48.208;16.308;2024-01-07T03:32:42;5.00;;;4.50;;
17826;SDS011;9038;48.208;16.308;2024-01-07T03:34:43;6.67;;;4.80;;
17826;SDS011;9038;48.208;16.308;2024-01-07T03:36:44;5.10;;;4.37;;
17826;SDS011;9038;48.208;16.308;2024-01-07T03:38:46;4.90;;;4.40;;
17826;SDS011;9038;48.208;16.308;2024-01-07T03:40:47;5.40;;;4.87;;
17826;SDS011;9038;48.208;16.308;2024-01-07T03:42:49;5.40;;;4.90;;
17826;SDS011;9038;48.208;16.308;2024-01-07T03:44:51;5.30;;;4.60;;
17826;SDS011;9038;48.208;16.308;2024-01-07T03:46:54;4.77;;;4.27;;
17826;SDS011;9038;48.208;16.308;2024-01-07T03:48:55;4.77;;;4.37;;
17826;SDS011;9038;48.208;16.308;2024-01-07T03:50:57;5.23;;;4.37;;
17826;SDS011;9038;48.208;16.308;2024-01-07T03:52:59;5.97;;;5.13;;
17826;SDS011;9038;48.208;16.308;2024-01-07T03:55:00;6.73;;;5.07;;
17826;SDS011;9038;48.208;16.308;2024-01-07T03:57:01;5.37;;;4.73;;
17826;SDS011;9038;48.208;16.308;2024-01-07T03:59:03;5.60;;;4.93;;
17826;SDS011;9038;48.208;16.308;2024-01-07T04:01:05;5.47;;;4.50;;
17826;SDS011;9038;48.208;16.308;2024-01-07T04:03:08;6.77;;;4.40;;
17826;SDS011;9038;48.208;16.308;2024-01-07T04:05:10;5.90;;;4.23;;
17826;SDS011;9038;48.208;16.308;2024-01-07T04:07:12;5.30;;;4.80;;
17826;SDS011;9038;48.208;16.308;2024-01-07T04:09:14;5.57;;;5.03;;
17826;SDS011;9038;48.208;16.308;2024-01-07T04:11:16;5.13;;;4.63;;
17826;SDS011;9038;48.208;16.308;2024-01-07T04:13:18;5.70;;;4.90;;
17826;SDS011;9038;48.208;16.308;2024-01-07T04:15:21;5.80;;;5.20;;
17826;SDS011;9038;48.208;16.308;2024-01-07T04:17:24;6.07;;;5.40;;
17826;SDS011;9038;48.208;16.308;2024-01-07T04:19:27;7.10;;;5.87;;
17826;SDS011;9038;48.208;16.308;2024-01-07T04:21:28;7.73;;;6.70;;
17826;SDS011;9038;48.208;16.308;2024-01-07T04:23:30;6.83;;;5.73;;
17826;SDS011;9038;48.208;16.308;2024-01-07T04:25:31;6.83;;;6.10;;
17826;SDS011;9038;48.208;16.308;2024-01-07T04:27:32;6.47;;;5.73;;
17826;SDS011;9038;48.208;16.308;2024-01-07T04:29:33;7.03;;;6.10;;
17826;SDS011;9038;48.208;16.308;2024-01-07T04:31:36;7.50;;;6.33;;
17826;SDS011;9038;48.208;16.308;2024-01-07T04:33:38;7.33;;;6.20;;
17826;SDS011;9038;48.208;16.308;2024-01-07T04:35:41;6.43;;;5.83;;
17826;SDS011;9038;48.208;16.308;2024-01-07T04:37:43;6.83;;;5.90;;
17826;SDS011;9038;48.208;16.308;2024-01-07T04:39:45;7.10;;;5.73;;
17826;SDS011;9038;48.208;16.308;2024-01-07T04:41:47;6.50;;;5.57;;
17826;SDS011;9038;48.208;16.308;2024-01-07T04:43:49;8.53;;;6.83;;
17826;SDS011;9038;48.208;16.308;2024-01-07T04:45:50;6.70;;;6.00;;
17826;SDS011;9038;48.208;16.308;2024-01-07T04:47:52;7.33;;;6.50;;
17826;SDS011;9038;48.208;16.308;2024-01-07T04:49:54;6.83;;;5.63;;
17826;SDS011;9038;48.208;16.308;2024-01-07T04:51:58;7.80;;;6.23;;
17826;SDS011;9038;48.208;16.308;2024-01-07T04:53:59;8.07;;;5.97;;
17826;SDS011;9038;48.208;16.308;2024-01-07T04:56:01;7.63;;;6.33;;
17826;SDS011;9038;48.208;16.308;2024-01-07T04:58:03;6.77;;;6.00;;
17826;SDS011;9038;48.208;16.308;2024-01-07T05:00:05;8.17;;;6.97;;
17826;SDS011;9038;48.208;16.308;2024-01-07T05:02:08;6.80;;;5.63;;
17826;SDS011;9038;48.208;16.308;2024-01-07T05:04:08;6.83;;;6.13;;
17826;SDS011;9038;48.208;16.308;2024-01-07T05:06:10;7.40;;;6.60;;
17826;SDS011;9038;48.208;16.308;2024-01-07T05:08:14;6.53;;;5.67;;
17826;SDS011;9038;48.208;16.308;2024-01-07T05:10:16;7.67;;;6.50;;
17826;SDS011;9038;48.208;16.308;2024-01-07T05:12:17;8.30;;;6.70;;
17826;SDS011;9038;48.208;16.308;2024-01-07T05:14:19;9.10;;;7.40;;
17826;SDS011;9038;48.208;16.308;2024-01-07T05:16:22;8.23;;;6.80;;
17826;SDS011;9038;48.208;16.308;2024-01-07T05:18:24;6.97;;;5.83;;
17826;SDS011;9038;48.208;16.308;2024-01-07T05:20:27;6.67;;;5.60;;
17826;SDS011;9038;48.208;16.308;2024-01-07T05:22:29;7.00;;;5.73;;
17826;SDS011;9038;48.208;16.308;2024-01-07T05:24:31;7.50;;;6.13;;
17826;SDS011;9038;48.208;16.308;2024-01-07T05:26:37;7.00;;;6.20;;
17826;SDS011;9038;48.208;16.308;2024-01-07T05:28:38;7.50;;;6.50;;
17826;SDS011;9038;48.208;16.308;2024-01-07T05:30:44;6.97;;;5.53;;
17826;SDS011;9038;48.208;16.308;2024-01-07T05:32:46;6.93;;;6.23;;
17826;SDS011;9038;48.208;16.308;2024-01-07T05:34:47;7.07;;;6.00;;
17826;SDS011;9038;48.208;16.308;2024-01-07T05:36:48;8.90;;;7.10;;
17826;SDS011;9038;48.208;16.308;2024-01-07T05:38:50;7.27;;;6.20;;
17826;SDS011;9038;48.208;16.308;2024-01-07T05:40:53;10.57;;;6.67;;
17826;SDS011;9038;48.208;16.308;2024-01-07T05:42:56;7.20;;;6.47;;
17826;SDS011;9038;48.208;16.308;2024-01-07T05:44:57;8.10;;;6.40;;
17826;SDS011;9038;48.208;16.308;2024-01-07T05:46:59;7.60;;;6.80;;
17826;SDS011;9038;48.208;16.308;2024-01-07T05:49:01;6.93;;;6.13;;
17826;SDS011;9038;48.208;16.308;2024-01-07T05:51:03;6.63;;;5.93;;
17826;SDS011;9038;48.208;16.308;2024-01-07T05:53:04;6.30;;;5.70;;
17826;SDS011;9038;48.208;16.308;2024-01-07T05:55:07;8.03;;;6.10;;
17826;SDS011;9038;48.208;16.308;2024-01-07T05:57:10;7.43;;;6.57;;
17826;SDS011;9038;48.208;16.308;2024-01-07T05:59:13;6.27;;;5.43;;
17826;SDS011;9038;48.208;16.308;2024-01-07T06:01:18;7.20;;;5.83;;
17826;SDS011;9038;48.208;16.308;2024-01-07T06:03:20;7.40;;;6.20;;
17826;SDS011;9038;48.208;16.308;2024-01-07T06:05:22;7.83;;;6.60;;
17826;SDS011;9038;48.208;16.308;2024-01-07T06:07:24;7.07;;;6.27;;
17826;SDS011;9038;48.208;16.308;2024-01-07T06:09:26;6.03;;;5.40;;
17826;SDS011;9038;48.208;16.308;2024-01-07T06:11:28;6.53;;;5.83;;
17826;SDS011;9038;48.208;16.308;2024-01-07T06:13:32;5.93;;;5.33;;
17826;SDS011;9038;48.208;16.308;2024-01-07T06:15:34;7.67;;;5.70;;
17826;SDS011;9038;48.208;16.308;2024-01-07T06:17:37;6.83;;;5.47;;
17826;SDS011;9038;48.208;16.308;2024-01-07T06:19:39;6.77;;;5.23;;
17826;SDS011;9038;48.208;16.308;2024-01-07T06:21:41;6.83;;;5.53;;
17826;SDS011;9038;48.208;16.308;2024-01-07T06:23:42;6.43;;;5.50;;
17826;SDS011;9038;48.208;16.308;2024-01-07T06:25:45;7.13;;;5.80;;
17826;SDS011;9038;48.208;16.308;2024-01-07T06:27:47;6.87;;;6.17;;
17826;SDS011;9038;48.208;16.308;2024-01-07T06:29:50;6.83;;;5.40;;
17826;SDS011;9038;48.208;16.308;2024-01-07T06:31:52;6.30;;;5.50;;
17826;SDS011;9038;48.208;16.308;2024-01-07T06:33:54;6.37;;;5.67;;
17826;SDS011;9038;48.208;16.308;2024-01-07T06:35:56;6.57;;;5.87;;
17826;SDS011;9038;48.208;16.308;2024-01-07T06:37:58;7.10;;;5.77;;
17826;SDS011;9038;48.208;16.308;2024-01-07T06:40:00;5.80;;;5.10;;
17826;SDS011;9038;48.208;16.308;2024-01-07T06:42:02;6.90;;;5.10;;
17826;SDS011;9038;48.208;16.308;2024-01-07T06:44:04;6.13;;;5.13;;
17826;SDS011;9038;48.208;16.308;2024-01-07T06:46:07;7.20;;;5.43;;
17826;SDS011;9038;48.208;16.308;2024-01-07T06:48:09;5.83;;;5.03;;
17826;SDS011;9038;48.208;16.308;2024-01-07T06:50:11;7.80;;;5.60;;
17826;SDS011;9038;48.208;16.308;2024-01-07T06:52:13;7.27;;;5.37;;
17826;SDS011;9038;48.208;16.308;2024-01-07T06:54:15;5.87;;;5.27;;
17826;SDS011;9038;48.208;16.308;2024-01-07T06:56:17;7.87;;;5.90;;
17826;SDS011;9038;48.208;16.308;2024-01-07T06:58:18;7.37;;;6.00;;
17826;SDS011;9038;48.208;16.308;2024-01-07T07:00:20;7.13;;;5.70;;
17826;SDS011;9038;48.208;16.308;2024-01-07T07:02:23;7.70;;;6.30;;
17826;SDS011;9038;48.208;16.308;2024-01-07T07:04:25;6.93;;;5.77;;
17826;SDS011;9038;48.208;16.308;2024-01-07T07:06:27;8.03;;;6.07;;
17826;SDS011;9038;48.208;16.308;2024-01-07T07:08:29;6.00;;;5.40;;
17826;SDS011;9038;48.208;16.308;2024-01-07T07:10:30;6.67;;;5.57;;
17826;SDS011;9038;48.208;16.308;2024-01-07T07:12:31;7.07;;;5.67;;
17826;SDS011;9038;48.208;16.308;2024-01-07T07:14:32;6.67;;;5.60;;
17826;SDS011;9038;48.208;16.308;2024-01-07T07:16:34;10.00;;;5.73;;
17826;SDS011;9038;48.208;16.308;2024-01-07T07:18:38;8.03;;;6.20;;
17826;SDS011;9038;48.208;16.308;2024-01-07T07:20:38;8.40;;;5.73;;
17826;SDS011;9038;48.208;16.308;2024-01-07T07:22:41;6.90;;;5.70;;
17826;SDS011;9038;48.208;16.308;2024-01-07T07:24:43;7.30;;;5.43;;
17826;SDS011;9038;48.208;16.308;2024-01-07T07:26:44;6.50;;;5.77;;
17826;SDS011;9038;48.208;16.308;2024-01-07T07:28:46;5.80;;;5.20;;
17826;SDS011;9038;48.208;16.308;2024-01-07T07:30:48;7.77;;;5.70;;
17826;SDS011;9038;48.208;16.308;2024-01-07T07:32:49;8.33;;;5.67;;
17826;SDS011;9038;48.208;16.308;2024-01-07T07:34:52;6.30;;;5.53;;
17826;SDS011;9038;48.208;16.308;2024-01-07T07:36:55;8.03;;;6.07;;
17826;SDS011;9038;48.208;16.308;2024-01-07T07:38:56;8.17;;;5.70;;
17826;SDS011;9038;48.208;16.308;2024-01-07T07:40:58;8.73;;;6.67;;
17826;SDS011;9038;48.208;16.308;2024-01-07T07:43:01;6.97;;;5.90;;
17826;SDS011;9038;48.208;16.308;2024-01-07T07:45:03;9.07;;;6.20;;
17826;SDS011;9038;48.208;16.308;2024-01-07T07:47:05;7.30;;;5.40;;
17826;SDS011;9038;48.208;16.308;2024-01-07T07:49:08;7.03;;;5.60;;
17826;SDS011;9038;48.208;16.308;2024-01-07T07:51:12;8.20;;;5.93;;
17826;SDS011;9038;48.208;16.308;2024-01-07T07:53:14;10.30;;;6.93;;
17826;SDS011;9038;48.208;16.308;2024-01-07T07:55:15;14.30;;;8.37;;
17826;SDS011;9038;48.208;16.308;2024-01-07T07:57:17;7.30;;;5.53;;
17826;SDS011;9038;48.208;16.308;2024-01-07T07:59:20;7.40;;;5.50;;
17826;SDS011;9038;48.208;16.308;2024-01-07T08:01:22;7.10;;;5.10;;
17826;SDS011;9038;48.208;16.308;2024-01-07T08:03:24;5.70;;;5.10;;
17826;SDS011;9038;48.208;16.308;2024-01-07T08:05:26;6.90;;;5.70;;
17826;SDS011;9038;48.208;16.308;2024-01-07T08:07:29;7.43;;;5.60;;
17826;SDS011;9038;48.208;16.308;2024-01-07T08:09:31;10.10;;;7.63;;
17826;SDS011;9038;48.208;16.308;2024-01-07T08:11:33;10.23;;;7.57;;
17826;SDS011;9038;48.208;16.308;2024-01-07T08:13:35;7.17;;;5.97;;
17826;SDS011;9038;48.208;16.308;2024-01-07T08:15:37;8.80;;;6.40;;
17826;SDS011;9038;48.208;16.308;2024-01-07T08:17:39;8.17;;;7.07;;
17826;SDS011;9038;48.208;16.308;2024-01-07T08:19:41;7.67;;;6.00;;
17826;SDS011;9038;48.208;16.308;2024-01-07T08:21:42;9.53;;;8.20;;
17826;SDS011;9038;48.208;16.308;2024-01-07T08:23:46;9.50;;;8.00;;
17826;SDS011;9038;48.208;16.308;2024-01-07T08:25:48;8.47;;;7.33;;
17826;SDS011;9038;48.208;16.308;2024-01-07T08:27:51;7.17;;;6.27;;
17826;SDS011;9038;48.208;16.308;2024-01-07T08:29:53;7.33;;;6.20;;
17826;SDS011;9038;48.208;16.308;2024-01-07T08:31:54;8.17;;;6.17;;
17826;SDS011;9038;48.208;16.308;2024-01-07T08:33:56;9.07;;;7.00;;
17826;SDS011;9038;48.208;16.308;2024-01-07T08:35:58;7.13;;;5.90;;
17826;SDS011;9038;48.208;16.308;2024-01-07T08:38:00;7.10;;;5.30;;
17826;SDS011;9038;48.208;16.308;2024-01-07T08:40:02;7.20;;;4.97;;
17826;SDS011;9038;48.208;16.308;2024-01-07T08:42:05;7.70;;;5.90;;
17826;SDS011;9038;48.208;16.308;2024-01-07T08:44:07;8.57;;;5.50;;
17826;SDS011;9038;48.208;16.308;2024-01-07T08:46:09;9.47;;;7.00;;
17826;SDS011;9038;48.208;16.308;2024-01-07T08:48:11;8.23;;;6.07;;
17826;SDS011;9038;48.208;16.308;2024-01-07T08:50:13;7.87;;;5.50;;
17826;SDS011;9038;48.208;16.308;2024-01-07T08:52:15;6.80;;;5.77;;
17826;SDS011;9038;48.208;16.308;2024-01-07T08:54:17;9.23;;;6.60;;
17826;SDS011;9038;48.208;16.308;2024-01-07T08:56:19;8.17;;;5.90;;
17826;SDS011;9038;48.208;16.308;2024-01-07T08:58:21;8.37;;;6.30;;
17826;SDS011;9038;48.208;16.308;2024-01-07T09:00:23;8.77;;;6.30;;
17826;SDS011;9038;48.208;16.308;2024-01-07T09:02:26;9.30;;;7.47;;
17826;SDS011;9038;48.208;16.308;2024-01-07T09:04:28;7.10;;;5.60;;
17826;SDS011;9038;48.208;16.308;2024-01-07T09:06:30;8.50;;;6.50;;
17826;SDS011;9038;48.208;16.308;2024-01-07T09:08:32;9.97;;;6.60;;
17826;SDS011;9038;48.208;16.308;2024-01-07T09:10:34;8.07;;;6.10;;
17826;SDS011;9038;48.208;16.308;2024-01-07T09:12:37;8.23;;;5.93;;
17826;SDS011;9038;48.208;16.308;2024-01-07T09:14:38;7.43;;;6.27;;
17826;SDS011;9038;48.208;16.308;2024-01-07T09:16:40;10.00;;;7.30;;
17826;SDS011;9038;48.208;16.308;2024-01-07T09:18:42;7.97;;;6.60;;
17826;SDS011;9038;48.208;16.308;2024-01-07T09:20:45;9.10;;;6.77;;
17826;SDS011;9038;48.208;16.308;2024-01-07T09:22:47;10.57;;;6.63;;
17826;SDS011;9038;48.208;16.308;2024-01-07T09:24:49;8.77;;;6.93;;
17826;SDS011;9038;48.208;16.308;2024-01-07T09:26:51;7.23;;;6.23;;
17826;SDS011;9038;48.208;16.308;2024-01-07T09:28:54;8.47;;;6.10;;
17826;SDS011;9038;48.208;16.308;2024-01-07T09:30:56;6.97;;;5.73;;
17826;SDS011;9038;48.208;16.308;2024-01-07T09:32:58;8.57;;;6.10;;
17826;SDS011;9038;48.208;16.308;2024-01-07T09:35:00;8.67;;;6.37;;
17826;SDS011;9038;48.208;16.308;2024-01-07T09:37:02;7.87;;;5.80;;
17826;SDS011;9038;48.208;16.308;2024-01-07T09:39:04;9.27;;;6.60;;
17826;SDS011;9038;48.208;16.308;2024-01-07T09:41:06;9.13;;;7.00;;
17826;SDS011;9038;48.208;16.308;2024-01-07T09:43:08;7.90;;;5.97;;
17826;SDS011;9038;48.208;16.308;2024-01-07T09:45:12;8.23;;;6.70;;
17826;SDS011;9038;48.208;16.308;2024-01-07T09:47:14;8.03;;;5.73;;
17826;SDS011;9038;48.208;16.308;2024-01-07T09:49:16;6.93;;;6.00;;
17826;SDS011;9038;48.208;16.308;2024-01-07T09:51:19;9.43;;;6.37;;
17826;SDS011;9038;48.208;16.308;2024-01-07T09:53:25;8.83;;;6.17;;
17826;SDS011;9038;48.208;16.308;2024-01-07T09:55:32;7.50;;;5.87;;
17826;SDS011;9038;48.208;16.308;2024-01-07T09:57:38;7.93;;;5.80;;
17826;SDS011;9038;48.208;16.308;2024-01-07T09:59:45;7.03;;;5.90;;
17826;SDS011;9038;48.208;16.308;2024-01-07T10:01:48;8.13;;;5.90;;
17826;SDS011;9038;48.208;16.308;2024-01-07T10:03:51;7.97;;;6.07;;
17826;SDS011;9038;48.208;16.308;2024-01-07T10:05:53;8.17;;;6.03;;
17826;SDS011;9038;48.208;16.308;2024-01-07T10:07:55;9.40;;;6.40;;
17826;SDS011;9038;48.208;16.308;2024-01-07T10:09:57;9.03;;;6.73;;
17826;SDS011;9038;48.208;16.308;2024-01-07T10:11:59;8.53;;;5.70;;
17826;SDS011;9038;48.208;16.308;2024-01-07T10:14:02;6.67;;;5.20;;
17826;SDS011;9038;48.208;16.308;2024-01-07T10:16:04;6.63;;;5.73;;
17826;SDS011;9038;48.208;16.308;2024-01-07T10:18:09;9.40;;;6.37;;
17826;SDS011;9038;48.208;16.308;2024-01-07T10:20:11;6.93;;;5.00;;
17826;SDS011;9038;48.208;16.308;2024-01-07T10:22:13;6.83;;;5.13;;
17826;SDS011;9038;48.208;16.308;2024-01-07T10:24:16;6.23;;;5.27;;
17826;SDS011;9038;48.208;16.308;2024-01-07T10:26:17;7.57;;;6.03;;
17826;SDS011;9038;48.208;16.308;2024-01-07T10:28:20;7.33;;;5.00;;
17826;SDS011;9038;48.208;16.308;2024-01-07T10:30:23;7.60;;;6.07;;
17826;SDS011;9038;48.208;16.308;2024-01-07T10:32:26;5.97;;;5.10;;
17826;SDS011;9038;48.208;16.308;2024-01-07T10:34:30;5.83;;;5.17;;
17826;SDS011;9038;48.208;16.308;2024-01-07T10:36:33;8.07;;;5.93;;
17826;SDS011;9038;48.208;16.308;2024-01-07T10:38:35;7.10;;;5.57;;
17826;SDS011;9038;48.208;16.308;2024-01-07T10:40:37;7.60;;;5.27;;
17826;SDS011;9038;48.208;16.308;2024-01-07T10:42:41;5.97;;;5.27;;
17826;SDS011;9038;48.208;16.308;2024-01-07T10:44:45;8.10;;;5.70;;
17826;SDS011;9038;48.208;16.308;2024-01-07T10:46:46;7.27;;;5.47;;
17826;SDS011;9038;48.208;16.308;2024-01-07T10:48:51;7.37;;;5.83;;
17826;SDS011;9038;48.208;16.308;2024-01-07T10:50:57;6.23;;;5.27;;
17826;SDS011;9038;48.208;16.308;2024-01-07T10:53:02;7.87;;;5.60;;
17826;SDS011;9038;48.208;16.308;2024-01-07T10:55:08;6.80;;;5.50;;
17826;SDS011;9038;48.208;16.308;2024-01-07T10:57:12;7.83;;;5.57;;
17826;SDS011;9038;48.208;16.308;2024-01-07T10:59:19;8.50;;;5.53;;
17826;SDS011;9038;48.208;16.308;2024-01-07T11:01:21;7.50;;;5.57;;
17826;SDS011;9038;48.208;16.308;2024-01-07T11:03:24;7.57;;;5.83;;
17826;SDS011;9038;48.208;16.308;2024-01-07T11:05:34;8.40;;;5.90;;
17826;SDS011;9038;48.208;16.308;2024-01-07T11:07:46;6.23;;;5.63;;
17826;SDS011;9038;48.208;16.308;2024-01-07T11:09:59;7.17;;;5.57;;
17826;SDS011;9038;48.208;16.308;2024-01-07T11:12:06;7.30;;;5.13;;
17826;SDS011;9038;48.208;16.308;2024-01-07T11:16:41;7.80;;;6.27;;
17826;SDS011;9038;48.208;16.308;2024-01-07T11:18:45;6.70;;;5.60;;
17826;SDS011;9038;48.208;16.308;2024-01-07T11:20:51;8.37;;;6.17;;
17826;SDS011;9038;48.208;16.308;2024-01-07T11:23:02;9.23;;;6.53;;
17826;SDS011;9038;48.208;16.308;2024-01-07T11:25:27;9.97;;;5.50;;
17826;SDS011;9038;48.208;16.308;2024-01-07T11:27:31;8.50;;;6.10;;
17826;SDS011;9038;48.208;16.308;2024-01-07T11:29:33;6.83;;;5.03;;
17826;SDS011;9038;48.208;16.308;2024-01-07T11:31:42;7.37;;;6.17;;
17826;SDS011;9038;48.208;16.308;2024-01-07T11:33:47;7.80;;;6.10;;
17826;SDS011;9038;48.208;16.308;2024-01-07T11:35:53;7.80;;;6.10;;
17826;SDS011;9038;48.208;16.308;2024-01-07T11:37:56;8.30;;;6.00;;
17826;SDS011;9038;48.208;16.308;2024-01-07T11:39:59;8.70;;;5.70;;
17826;SDS011;9038;48.208;16.308;2024-01-07T11:42:01;8.93;;;6.17;;
17826;SDS011;9038;48.208;16.308;2024-01-07T11:44:05;8.87;;;6.83;;
17826;SDS011;9038;48.208;16.308;2024-01-07T11:46:07;7.60;;;6.07;;
17826;SDS011;9038;48.208;16.308;2024-01-07T11:48:08;8.30;;;5.80;;
17826;SDS011;9038;48.208;16.308;2024-01-07T11:50:09;7.57;;;6.03;;
17826;SDS011;9038;48.208;16.308;2024-01-07T11:52:11;8.40;;;5.70;;
17826;SDS011;9038;48.208;16.308;2024-01-07T11:54:14;8.27;;;6.20;;
17826;SDS011;9038;48.208;16.308;2024-01-07T11:56:17;7.07;;;5.97;;
17826;SDS011;9038;48.208;16.308;2024-01-07T11:58:19;7.03;;;6.10;;
17826;SDS011;9038;48.208;16.308;2024-01-07T12:00:21;7.40;;;5.77;;
17826;SDS011;9038;48.208;16.308;2024-01-07T12:02:22;7.73;;;5.93;;
17826;SDS011;9038;48.208;16.308;2024-01-07T12:04:26;7.00;;;5.67;;
17826;SDS011;9038;48.208;16.308;2024-01-07T12:06:27;8.07;;;6.47;;
17826;SDS011;9038;48.208;16.308;2024-01-07T12:08:29;6.77;;;5.37;;
17826;SDS011;9038;48.208;16.308;2024-01-07T12:10:31;7.47;;;6.53;;
17826;SDS011;9038;48.208;16.308;2024-01-07T12:12:33;7.73;;;6.27;;
17826;SDS011;9038;48.208;16.308;2024-01-07T12:14:35;8.87;;;6.60;;
17826;SDS011;9038;48.208;16.308;2024-01-07T12:16:37;7.80;;;6.37;;
17826;SDS011;9038;48.208;16.308;2024-01-07T12:18:39;7.17;;;6.00;;
17826;SDS011;9038;48.208;16.308;2024-01-07T12:20:40;9.23;;;6.53;;